sensor_id;sensor_type;location;lat;lon;timestamp;temperature;humidity
21417;DHT22;10869;52.238;10.716;2022-12-07T04:07:16;3.10;99.90
21417;DHT22;10869;52.238;10.716;2022-12-07T04:09:42;3.20;99.90
21417;DHT22;10869;52.238;10.716;2022-12-07T04:12:08;3.10;99.90
21417;DHT22;10869;52.238;10.716;2022-12-07T04:14:34;3.20;99.90
21417;DHT22;10869;52.238;10.716;2022-12-07T04:16:59;3.20;99.90
21417;DHT22;10869;52.238;10.716;2022-12-07T04:19:28;3.20;99.90
21417;DHT22;10869;52.238;10.716;2022-12-07T04:21:54;3.20;99.90
21417;DHT22;10869;52.238;10.716;2022-12-07T04:24:21;3.20;99.90
21417;DHT22;10869;52.238;10.716;2022-12-07T04:26:47;3.20;99.90
21417;DHT22;10869;52.238;10.716;2022-12-07T04:29:14;3.20;99.90
21417;DHT22;10869;52.238;10.716;2022-12-07T04:31:40;3.20;99.90
21417;DHT22;10869;52.238;10.716;2022-12-07T04:34:06;3.30;99.90
21417;DHT22;10869;52.238;10.716;2022-12-07T04:36:34;3.20;99.90
21417;DHT22;10869;52.238;10.716;2022-12-07T04:39:04;3.30;99.90
21417;DHT22;10869;52.238;10.716;2022-12-07T04:41:31;3.20;99.90
21417;DHT22;10869;52.238;10.716;2022-12-07T04:44:00;3.20;99.90
21417;DHT22;10869;52.238;10.716;2022-12-07T04:46:26;3.20;99.90
21417;DHT22;10869;52.238;10.716;2022-12-07T04:48:53;3.30;99.90
21417;DHT22;10869;52.238;10.716;2022-12-07T04:51:21;3.30;99.90
21417;DHT22;10869;52.238;10.716;2022-12-07T04:53:48;3.30;99.90
21417;DHT22;10869;52.238;10.716;2022-12-07T04:56:15;3.20;99.90
21417;DHT22;10869;52.238;10.716;2022-12-07T04:58:42;3.20;99.90
21417;DHT22;10869;52.238;10.716;2022-12-07T05:01:08;3.20;99.90
21417;DHT22;10869;52.238;10.716;2022-12-07T05:03:35;3.20;99.90
21417;DHT22;10869;52.238;10.716;2022-12-07T05:06:01;3.20;99.90
21417;DHT22;10869;52.238;10.716;2022-12-07T05:08:27;3.20;99.90
21417;DHT22;10869;52.238;10.716;2022-12-07T05:10:52;3.20;99.90
21417;DHT22;10869;52.238;10.716;2022-12-07T05:13:18;3.20;99.90
21417;DHT22;10869;52.238;10.716;2022-12-07T05:15:44;3.30;99.90
21417;DHT22;10869;52.238;10.716;2022-12-07T05:18:10;3.30;99.90
21417;DHT22;10869;52.238;10.716;2022-12-07T05:20:38;3.20;99.90
21417;DHT22;10869;52.238;10.716;2022-12-07T05:23:04;3.20;99.90
21417;DHT22;10869;52.238;10.716;2022-12-07T05:25:30;3.30;99.90
21417;DHT22;10869;52.238;10.716;2022-12-07T05:27:56;3.30;99.90
21417;DHT22;10869;52.238;10.716;2022-12-07T05:30:23;3.30;99.90
21417;DHT22;10869;52.238;10.716;2022-12-07T05:32:51;3.30;99.90
21417;DHT22;10869;52.238;10.716;2022-12-07T05:35:18;3.30;99.90
21417;DHT22;10869;52.238;10.716;2022-12-07T05:37:45;3.30;99.90
21417;DHT22;10869;52.238;10.716;2022-12-07T05:40:13;3.30;99.90
21417;DHT22;10869;52.238;10.716;2022-12-07T05:42:40;3.30;99.90
21417;DHT22;10869;52.238;10.716;2022-12-07T05:45:08;3.30;99.90
21417;DHT22;10869;52.238;10.716;2022-12-07T05:47:34;3.30;99.90
21417;DHT22;10869;52.238;10.716;2022-12-07T05:50:01;3.20;99.90
21417;DHT22;10869;52.238;10.716;2022-12-07T05:52:26;3.20;99.90
21417;DHT22;10869;52.238;10.716;2022-12-07T05:54:52;3.20;99.90
21417;DHT22;10869;52.238;10.716;2022-12-07T05:57:18;3.20;99.90
21417;DHT22;10869;52.238;10.716;2022-12-07T05:59:44;3.20;99.90
21417;DHT22;10869;52.238;10.716;2022-12-07T06:02:13;3.20;99.90
21417;DHT22;10869;52.238;10.716;2022-12-07T06:04:44;3.20;99.90
21417;DHT22;10869;52.238;10.716;2022-12-07T06:07:12;3.20;99.90
21417;DHT22;10869;52.238;10.716;2022-12-07T06:09:38;3.20;99.90
21417;DHT22;10869;52.238;10.716;2022-12-07T06:12:05;3.20;99.90
21417;DHT22;10869;52.238;10.716;2022-12-07T06:14:49;3.20;99.90
21417;DHT22;10869;52.238;10.716;2022-12-07T06:17:15;3.20;99.90
21417;DHT22;10869;52.238;10.716;2022-12-07T06:19:42;3.20;99.90
21417;DHT22;10869;52.238;10.716;2022-12-07T06:22:09;3.20;99.90
21417;DHT22;10869;52.238;10.716;2022-12-07T06:24:37;3.20;99.90
21417;DHT22;10869;52.238;10.716;2022-12-07T06:30:25;3.20;99.90
21417;DHT22;10869;52.238;10.716;2022-12-07T06:32:51;3.20;99.90
21417;DHT22;10869;52.238;10.716;2022-12-07T06:35:17;3.10;99.90
21417;DHT22;10869;52.238;10.716;2022-12-07T06:41:05;3.20;99.90
21417;DHT22;10869;52.238;10.716;2022-12-07T06:43:30;3.10;99.90
21417;DHT22;10869;52.238;10.716;2022-12-07T07:03:24;2.70;99.90
21417;DHT22;10869;52.238;10.716;2022-12-07T07:43:56;2.60;99.90
21417;DHT22;10869;52.238;10.716;2022-12-07T07:46:27;2.70;99.90
21417;DHT22;10869;52.238;10.716;2022-12-07T07:48:55;2.70;99.90
21417;DHT22;10869;52.238;10.716;2022-12-07T07:51:30;2.70;99.90
21417;DHT22;10869;52.238;10.716;2022-12-07T08:25:50;2.90;99.90
21417;DHT22;10869;52.238;10.716;2022-12-07T08:31:38;3.00;99.90
21417;DHT22;10869;52.238;10.716;2022-12-07T08:37:26;3.00;99.90
21417;DHT22;10869;52.238;10.716;2022-12-07T08:43:14;3.00;99.90
21417;DHT22;10869;52.238;10.716;2022-12-07T08:49:06;3.00;99.90
21417;DHT22;10869;52.238;10.716;2022-12-07T08:54:55;3.10;99.90
21417;DHT22;10869;52.238;10.716;2022-12-07T09:00:46;3.10;99.90
21417;DHT22;10869;52.238;10.716;2022-12-07T09:03:12;3.10;99.90
21417;DHT22;10869;52.238;10.716;2022-12-07T09:05:37;3.10;99.90
21417;DHT22;10869;52.238;10.716;2022-12-07T09:08:03;3.10;99.90
21417;DHT22;10869;52.238;10.716;2022-12-07T09:10:29;3.10;99.90
21417;DHT22;10869;52.238;10.716;2022-12-07T09:16:17;3.20;99.90
21417;DHT22;10869;52.238;10.716;2022-12-07T09:18:43;3.20;99.90
21417;DHT22;10869;52.238;10.716;2022-12-07T09:21:08;3.20;99.90
21417;DHT22;10869;52.238;10.716;2022-12-07T09:23:34;3.20;99.90
21417;DHT22;10869;52.238;10.716;2022-12-07T09:26:16;3.20;99.90
21417;DHT22;10869;52.238;10.716;2022-12-07T09:28:42;3.30;99.90
21417;DHT22;10869;52.238;10.716;2022-12-07T09:31:08;3.30;99.90
21417;DHT22;10869;52.238;10.716;2022-12-07T09:33:33;3.30;99.90
21417;DHT22;10869;52.238;10.716;2022-12-07T09:35:59;3.30;99.90
21417;DHT22;10869;52.238;10.716;2022-12-07T09:38:25;3.30;99.90
21417;DHT22;10869;52.238;10.716;2022-12-07T09:40:52;3.30;99.90
21417;DHT22;10869;52.238;10.716;2022-12-07T09:43:24;3.30;99.90
21417;DHT22;10869;52.238;10.716;2022-12-07T09:45:52;3.30;99.90
21417;DHT22;10869;52.238;10.716;2022-12-07T09:48:32;3.30;99.90
21417;DHT22;10869;52.238;10.716;2022-12-07T09:51:00;3.30;99.90
21417;DHT22;10869;52.238;10.716;2022-12-07T09:53:37;3.40;99.90
21417;DHT22;10869;52.238;10.716;2022-12-07T09:56:06;3.40;99.90
21417;DHT22;10869;52.238;10.716;2022-12-07T09:58:33;3.40;99.90
21417;DHT22;10869;52.238;10.716;2022-12-07T10:03:38;3.50;99.90
21417;DHT22;10869;52.238;10.716;2022-12-07T10:09:40;3.50;99.90
21417;DHT22;10869;52.238;10.716;2022-12-07T10:12:08;3.50;99.90
21417;DHT22;10869;52.238;10.716;2022-12-07T10:14:40;3.40;99.90
21417;DHT22;10869;52.238;10.716;2022-12-07T10:17:40;3.40;99.90
21417;DHT22;10869;52.238;10.716;2022-12-07T10:20:24;3.40;99.90
21417;DHT22;10869;52.238;10.716;2022-12-07T10:23:04;3.40;99.90
21417;DHT22;10869;52.238;10.716;2022-12-07T10:25:36;3.40;99.90
21417;DHT22;10869;52.238;10.716;2022-12-07T10:33:44;3.40;99.90
21417;DHT22;10869;52.238;10.716;2022-12-07T10:39:13;3.50;99.90
21417;DHT22;10869;52.238;10.716;2022-12-07T10:42:03;3.60;99.90
21417;DHT22;10869;52.238;10.716;2022-12-07T10:44:30;3.60;99.90
21417;DHT22;10869;52.238;10.716;2022-12-07T10:58:02;3.50;99.90
21417;DHT22;10869;52.238;10.716;2022-12-07T11:14:48;3.70;99.90
21417;DHT22;10869;52.238;10.716;2022-12-07T11:17:17;3.70;99.90
21417;DHT22;10869;52.238;10.716;2022-12-07T11:22:35;3.70;99.90
21417;DHT22;10869;52.238;10.716;2022-12-07T11:25:27;3.70;99.90
21417;DHT22;10869;52.238;10.716;2022-12-07T11:33:47;3.70;99.90
21417;DHT22;10869;52.238;10.716;2022-12-07T11:36:44;3.70;99.90
21417;DHT22;10869;52.238;10.716;2022-12-07T11:39:39;3.70;99.90
21417;DHT22;10869;52.238;10.716;2022-12-07T11:42:14;3.70;99.90
21417;DHT22;10869;52.238;10.716;2022-12-07T11:49:56;3.70;99.90
21417;DHT22;10869;52.238;10.716;2022-12-07T11:52:40;3.80;99.90
21417;DHT22;10869;52.238;10.716;2022-12-07T11:57:50;4.00;99.90
21417;DHT22;10869;52.238;10.716;2022-12-07T12:00:17;4.00;99.90
21417;DHT22;10869;52.238;10.716;2022-12-07T12:03:00;4.10;99.90
21417;DHT22;10869;52.238;10.716;2022-12-07T12:05:27;4.20;99.90
21417;DHT22;10869;52.238;10.716;2022-12-07T12:08:03;4.30;99.90
21417;DHT22;10869;52.238;10.716;2022-12-07T12:20:15;4.30;99.90
21417;DHT22;10869;52.238;10.716;2022-12-07T12:22:18;4.30;99.90
21417;DHT22;10869;52.238;10.716;2022-12-07T12:24:49;4.30;99.90
21417;DHT22;10869;52.238;10.716;2022-12-07T12:27:40;4.20;99.90
21417;DHT22;10869;52.238;10.716;2022-12-07T12:30:37;4.20;99.90
21417;DHT22;10869;52.238;10.716;2022-12-07T12:33:25;4.10;99.90
21417;DHT22;10869;52.238;10.716;2022-12-07T12:47:03;3.90;99.90
21417;DHT22;10869;52.238;10.716;2022-12-07T12:49:34;3.90;99.90
21417;DHT22;10869;52.238;10.716;2022-12-07T12:57:33;3.80;99.90
21417;DHT22;10869;52.238;10.716;2022-12-07T13:00:00;3.80;99.90
21417;DHT22;10869;52.238;10.716;2022-12-07T13:08:02;3.80;99.90
21417;DHT22;10869;52.238;10.716;2022-12-07T13:10:41;3.80;99.90
21417;DHT22;10869;52.238;10.716;2022-12-07T13:32:25;3.90;99.90
21417;DHT22;10869;52.238;10.716;2022-12-07T13:38:33;3.90;99.90
21417;DHT22;10869;52.238;10.716;2022-12-07T13:44:23;3.80;99.90
21417;DHT22;10869;52.238;10.716;2022-12-07T13:52:44;3.70;99.90
21417;DHT22;10869;52.238;10.716;2022-12-07T13:55:17;3.60;99.90
21417;DHT22;10869;52.238;10.716;2022-12-07T13:57:45;3.60;99.90
21417;DHT22;10869;52.238;10.716;2022-12-07T14:03:35;3.60;99.90
21417;DHT22;10869;52.238;10.716;2022-12-07T14:06:27;3.60;99.90
21417;DHT22;10869;52.238;10.716;2022-12-07T14:09:20;3.50;99.90
21417;DHT22;10869;52.238;10.716;2022-12-07T14:11:49;3.50;99.90
21417;DHT22;10869;52.238;10.716;2022-12-07T14:17:53;3.50;99.90
21417;DHT22;10869;52.238;10.716;2022-12-07T14:22:59;3.50;99.90
21417;DHT22;10869;52.238;10.716;2022-12-07T14:25:28;3.40;99.90
21417;DHT22;10869;52.238;10.716;2022-12-07T14:31:18;3.50;99.90
21417;DHT22;10869;52.238;10.716;2022-12-07T14:33:52;3.40;99.90
21417;DHT22;10869;52.238;10.716;2022-12-07T14:36:17;3.40;99.90
21417;DHT22;10869;52.238;10.716;2022-12-07T14:38:43;3.40;99.90
21417;DHT22;10869;52.238;10.716;2022-12-07T14:41:17;3.40;99.90
21417;DHT22;10869;52.238;10.716;2022-12-07T14:44:13;3.40;99.90
21417;DHT22;10869;52.238;10.716;2022-12-07T14:46:42;3.40;99.90
21417;DHT22;10869;52.238;10.716;2022-12-07T14:49:08;3.40;99.90
21417;DHT22;10869;52.238;10.716;2022-12-07T14:51:37;3.30;99.90
21417;DHT22;10869;52.238;10.716;2022-12-07T14:57:29;3.20;99.90
21417;DHT22;10869;52.238;10.716;2022-12-07T15:03:19;3.20;99.90
21417;DHT22;10869;52.238;10.716;2022-12-07T15:05:45;3.20;99.90
21417;DHT22;10869;52.238;10.716;2022-12-07T15:08:22;3.10;99.90
21417;DHT22;10869;52.238;10.716;2022-12-07T15:10:48;3.20;99.90
21417;DHT22;10869;52.238;10.716;2022-12-07T15:16:42;3.20;99.90
21417;DHT22;10869;52.238;10.716;2022-12-07T15:19:17;3.30;99.90
21417;DHT22;10869;52.238;10.716;2022-12-07T15:21:43;3.30;99.90
21417;DHT22;10869;52.238;10.716;2022-12-07T15:24:11;3.30;99.90
21417;DHT22;10869;52.238;10.716;2022-12-07T15:31:56;3.30;99.90
21417;DHT22;10869;52.238;10.716;2022-12-07T15:38:19;3.30;99.90
21417;DHT22;10869;52.238;10.716;2022-12-07T15:44:11;3.30;99.90
21417;DHT22;10869;52.238;10.716;2022-12-07T15:50:18;3.30;99.90
21417;DHT22;10869;52.238;10.716;2022-12-07T15:52:44;3.30;99.90
21417;DHT22;10869;52.238;10.716;2022-12-07T15:55:10;3.20;99.90
21417;DHT22;10869;52.238;10.716;2022-12-07T16:00:58;3.30;99.90
21417;DHT22;10869;52.238;10.716;2022-12-07T16:03:24;3.30;99.90
21417;DHT22;10869;52.238;10.716;2022-12-07T16:05:50;3.30;99.90
21417;DHT22;10869;52.238;10.716;2022-12-07T16:08:17;3.30;99.90
21417;DHT22;10869;52.238;10.716;2022-12-07T16:10:42;3.30;99.90
21417;DHT22;10869;52.238;10.716;2022-12-07T16:13:12;3.30;99.90
21417;DHT22;10869;52.238;10.716;2022-12-07T16:15:40;3.30;99.90
21417;DHT22;10869;52.238;10.716;2022-12-07T16:21:35;3.30;99.90
21417;DHT22;10869;52.238;10.716;2022-12-07T16:24:01;3.30;99.90
21417;DHT22;10869;52.238;10.716;2022-12-07T16:29:50;3.20;99.90
21417;DHT22;10869;52.238;10.716;2022-12-07T16:32:15;3.10;99.90
21417;DHT22;10869;52.238;10.716;2022-12-07T16:34:41;3.10;99.90
21417;DHT22;10869;52.238;10.716;2022-12-07T16:37:08;3.00;99.90
21417;DHT22;10869;52.238;10.716;2022-12-07T16:39:34;2.90;99.90
21417;DHT22;10869;52.238;10.716;2022-12-07T16:42:00;3.00;99.90
21417;DHT22;10869;52.238;10.716;2022-12-07T16:44:26;2.90;99.90
21417;DHT22;10869;52.238;10.716;2022-12-07T16:46:52;2.90;99.90
21417;DHT22;10869;52.238;10.716;2022-12-07T16:49:18;2.80;99.90
21417;DHT22;10869;52.238;10.716;2022-12-07T16:51:50;2.80;99.90
21417;DHT22;10869;52.238;10.716;2022-12-07T16:54:16;2.70;99.90
21417;DHT22;10869;52.238;10.716;2022-12-07T16:56:42;2.70;99.90
21417;DHT22;10869;52.238;10.716;2022-12-07T16:59:08;2.60;99.90
21417;DHT22;10869;52.238;10.716;2022-12-07T17:01:34;2.60;99.90
21417;DHT22;10869;52.238;10.716;2022-12-07T17:04:00;2.60;99.90
21417;DHT22;10869;52.238;10.716;2022-12-07T17:06:28;2.60;99.90
21417;DHT22;10869;52.238;10.716;2022-12-07T17:08:55;2.50;99.90
21417;DHT22;10869;52.238;10.716;2022-12-07T17:11:23;2.50;99.90
21417;DHT22;10869;52.238;10.716;2022-12-07T17:13:50;2.50;99.90
21417;DHT22;10869;52.238;10.716;2022-12-07T17:16:34;2.50;99.90
21417;DHT22;10869;52.238;10.716;2022-12-07T17:19:04;2.50;99.90
21417;DHT22;10869;52.238;10.716;2022-12-07T17:21:31;2.50;99.90
21417;DHT22;10869;52.238;10.716;2022-12-07T17:23:59;2.50;99.90
21417;DHT22;10869;52.238;10.716;2022-12-07T17:26:28;2.50;99.90
21417;DHT22;10869;52.238;10.716;2022-12-07T17:28:55;2.40;99.90
21417;DHT22;10869;52.238;10.716;2022-12-07T17:31:22;2.40;99.90
21417;DHT22;10869;52.238;10.716;2022-12-07T17:33:49;2.40;99.90
21417;DHT22;10869;52.238;10.716;2022-12-07T17:36:24;2.40;99.90
21417;DHT22;10869;52.238;10.716;2022-12-07T17:38:51;2.40;99.90
21417;DHT22;10869;52.238;10.716;2022-12-07T17:41:23;2.40;99.90
21417;DHT22;10869;52.238;10.716;2022-12-07T17:44:10;2.40;99.90
21417;DHT22;10869;52.238;10.716;2022-12-07T17:46:36;2.40;99.90
21417;DHT22;10869;52.238;10.716;2022-12-07T17:49:03;2.40;99.90
21417;DHT22;10869;52.238;10.716;2022-12-07T17:54:51;2.40;99.90
21417;DHT22;10869;52.238;10.716;2022-12-07T17:57:17;2.30;99.90
21417;DHT22;10869;52.238;10.716;2022-12-07T17:59:43;2.30;99.90
21417;DHT22;10869;52.238;10.716;2022-12-07T18:02:09;2.30;99.90
21417;DHT22;10869;52.238;10.716;2022-12-07T18:04:35;2.30;99.90
21417;DHT22;10869;52.238;10.716;2022-12-07T18:07:01;2.30;99.90
21417;DHT22;10869;52.238;10.716;2022-12-07T18:09:30;2.30;99.90
21417;DHT22;10869;52.238;10.716;2022-12-07T18:11:55;2.30;99.90
21417;DHT22;10869;52.238;10.716;2022-12-07T18:14:21;2.30;99.90
21417;DHT22;10869;52.238;10.716;2022-12-07T18:16:47;2.30;99.90
21417;DHT22;10869;52.238;10.716;2022-12-07T18:19:14;2.30;99.90
21417;DHT22;10869;52.238;10.716;2022-12-07T18:21:41;2.30;99.90
21417;DHT22;10869;52.238;10.716;2022-12-07T18:24:11;2.30;99.90
21417;DHT22;10869;52.238;10.716;2022-12-07T18:26:38;2.30;99.90
21417;DHT22;10869;52.238;10.716;2022-12-07T18:29:05;2.30;99.90
21417;DHT22;10869;52.238;10.716;2022-12-07T18:31:32;2.30;99.90
21417;DHT22;10869;52.238;10.716;2022-12-07T18:34:03;2.30;99.90
21417;DHT22;10869;52.238;10.716;2022-12-07T18:36:30;2.30;99.90
21417;DHT22;10869;52.238;10.716;2022-12-07T18:38:56;2.30;99.90
21417;DHT22;10869;52.238;10.716;2022-12-07T18:41:22;2.30;99.90
21417;DHT22;10869;52.238;10.716;2022-12-07T18:43:48;2.20;99.90
21417;DHT22;10869;52.238;10.716;2022-12-07T18:46:16;2.30;99.90
21417;DHT22;10869;52.238;10.716;2022-12-07T18:48:42;2.20;99.90
21417;DHT22;10869;52.238;10.716;2022-12-07T18:51:10;2.20;99.90
21417;DHT22;10869;52.238;10.716;2022-12-07T18:53:36;2.20;99.90
21417;DHT22;10869;52.238;10.716;2022-12-07T18:56:06;2.10;99.90
21417;DHT22;10869;52.238;10.716;2022-12-07T18:58:33;2.00;99.90
21417;DHT22;10869;52.238;10.716;2022-12-07T19:01:00;2.00;99.90
21417;DHT22;10869;52.238;10.716;2022-12-07T19:03:26;1.90;99.90
21417;DHT22;10869;52.238;10.716;2022-12-07T19:05:53;1.90;99.90
21417;DHT22;10869;52.238;10.716;2022-12-07T19:08:23;1.90;99.90
21417;DHT22;10869;52.238;10.716;2022-12-07T19:10:49;1.80;99.90
21417;DHT22;10869;52.238;10.716;2022-12-07T19:13:15;1.80;99.90
21417;DHT22;10869;52.238;10.716;2022-12-07T19:15:44;1.80;99.90
21417;DHT22;10869;52.238;10.716;2022-12-07T19:18:13;1.70;99.90
21417;DHT22;10869;52.238;10.716;2022-12-07T19:20:46;1.70;99.90
21417;DHT22;10869;52.238;10.716;2022-12-07T19:23:13;1.70;99.90
21417;DHT22;10869;52.238;10.716;2022-12-07T19:25:46;1.60;99.90
21417;DHT22;10869;52.238;10.716;2022-12-07T19:28:17;1.60;99.90
21417;DHT22;10869;52.238;10.716;2022-12-07T19:48:56;1.30;99.90
21417;DHT22;10869;52.238;10.716;2022-12-07T19:51:23;1.30;99.90
21417;DHT22;10869;52.238;10.716;2022-12-07T19:53:49;1.30;99.90
21417;DHT22;10869;52.238;10.716;2022-12-07T19:59:36;1.40;99.90
21417;DHT22;10869;52.238;10.716;2022-12-07T20:05:27;1.40;99.90
21417;DHT22;10869;52.238;10.716;2022-12-07T20:07:53;1.50;99.90
21417;DHT22;10869;52.238;10.716;2022-12-07T20:10:18;1.50;99.90
21417;DHT22;10869;52.238;10.716;2022-12-07T20:12:44;1.50;99.90
21417;DHT22;10869;52.238;10.716;2022-12-07T20:15:28;1.50;99.90
21417;DHT22;10869;52.238;10.716;2022-12-07T20:17:54;1.50;99.90
21417;DHT22;10869;52.238;10.716;2022-12-07T20:23:42;1.50;99.90
21417;DHT22;10869;52.238;10.716;2022-12-07T20:29:30;1.60;99.90
21417;DHT22;10869;52.238;10.716;2022-12-07T20:31:56;1.60;99.90
21417;DHT22;10869;52.238;10.716;2022-12-07T20:50:33;1.50;99.90
21417;DHT22;10869;52.238;10.716;2022-12-07T20:53:03;1.50;99.90
21417;DHT22;10869;52.238;10.716;2022-12-07T20:55:29;1.50;99.90
21417;DHT22;10869;52.238;10.716;2022-12-07T20:57:56;1.50;99.90
21417;DHT22;10869;52.238;10.716;2022-12-07T21:00:21;1.50;99.90
21417;DHT22;10869;52.238;10.716;2022-12-07T21:06:13;1.50;99.90
21417;DHT22;10869;52.238;10.716;2022-12-07T21:12:09;1.50;99.90
21417;DHT22;10869;52.238;10.716;2022-12-07T21:14:42;1.60;99.90
21417;DHT22;10869;52.238;10.716;2022-12-07T21:17:11;1.50;99.90
21417;DHT22;10869;52.238;10.716;2022-12-07T21:19:46;1.60;99.90
21417;DHT22;10869;52.238;10.716;2022-12-07T21:22:13;1.50;99.90
21417;DHT22;10869;52.238;10.716;2022-12-07T21:24:40;1.60;99.90
21417;DHT22;10869;52.238;10.716;2022-12-07T21:27:06;1.60;99.90
21417;DHT22;10869;52.238;10.716;2022-12-07T21:29:32;1.60;99.90
21417;DHT22;10869;52.238;10.716;2022-12-07T21:31:58;1.70;99.90
21417;DHT22;10869;52.238;10.716;2022-12-07T21:37:52;1.70;99.90
21417;DHT22;10869;52.238;10.716;2022-12-07T21:40:18;1.80;99.90
21417;DHT22;10869;52.238;10.716;2022-12-07T21:42:43;1.80;99.90
21417;DHT22;10869;52.238;10.716;2022-12-07T21:45:09;1.80;99.90
21417;DHT22;10869;52.238;10.716;2022-12-07T21:51:09;1.80;99.90
21417;DHT22;10869;52.238;10.716;2022-12-07T21:53:36;1.90;99.90
21417;DHT22;10869;52.238;10.716;2022-12-07T21:56:03;1.90;99.90
21417;DHT22;10869;52.238;10.716;2022-12-07T21:58:30;1.80;99.90
21417;DHT22;10869;52.238;10.716;2022-12-07T22:00:57;1.90;99.90
21417;DHT22;10869;52.238;10.716;2022-12-07T22:03:23;1.90;99.90
21417;DHT22;10869;52.238;10.716;2022-12-07T22:05:49;1.90;99.90
21417;DHT22;10869;52.238;10.716;2022-12-07T22:08:16;1.90;99.90
21417;DHT22;10869;52.238;10.716;2022-12-07T22:14:05;2.00;99.90
21417;DHT22;10869;52.238;10.716;2022-12-07T22:16:53;1.90;99.90
21417;DHT22;10869;52.238;10.716;2022-12-07T22:19:19;2.00;99.90
21417;DHT22;10869;52.238;10.716;2022-12-07T22:21:47;2.00;99.90
21417;DHT22;10869;52.238;10.716;2022-12-07T22:24:13;2.00;99.90
21417;DHT22;10869;52.238;10.716;2022-12-07T22:26:41;2.00;99.90
21417;DHT22;10869;52.238;10.716;2022-12-07T22:29:07;2.00;99.90
21417;DHT22;10869;52.238;10.716;2022-12-07T22:31:33;2.00;99.90
21417;DHT22;10869;52.238;10.716;2022-12-07T22:34:00;2.00;99.90
21417;DHT22;10869;52.238;10.716;2022-12-07T22:36:26;2.00;99.90
21417;DHT22;10869;52.238;10.716;2022-12-07T22:38:53;2.10;99.90
21417;DHT22;10869;52.238;10.716;2022-12-07T22:41:25;2.10;99.90
21417;DHT22;10869;52.238;10.716;2022-12-07T22:43:52;2.00;99.90
21417;DHT22;10869;52.238;10.716;2022-12-07T22:46:18;2.10;99.90
21417;DHT22;10869;52.238;10.716;2022-12-07T22:48:50;2.10;99.90
21417;DHT22;10869;52.238;10.716;2022-12-07T23:17:17;2.00;99.90
21417;DHT22;10869;52.238;10.716;2022-12-07T23:19:50;2.00;99.90
21417;DHT22;10869;52.238;10.716;2022-12-07T23:22:16;2.00;99.90
21417;DHT22;10869;52.238;10.716;2022-12-07T23:24:43;2.10;99.90
21417;DHT22;10869;52.238;10.716;2022-12-07T23:27:13;2.00;99.90
21417;DHT22;10869;52.238;10.716;2022-12-07T23:29:39;2.00;99.90
21417;DHT22;10869;52.238;10.716;2022-12-07T23:32:05;2.00;99.90
21417;DHT22;10869;52.238;10.716;2022-12-07T23:34:31;2.10;99.90
21417;DHT22;10869;52.238;10.716;2022-12-07T23:36:58;2.10;99.90
21417;DHT22;10869;52.238;10.716;2022-12-07T23:39:30;2.10;99.90
21417;DHT22;10869;52.238;10.716;2022-12-07T23:41:56;2.10;99.90
21417;DHT22;10869;52.238;10.716;2022-12-07T23:44:22;2.10;99.90
21417;DHT22;10869;52.238;10.716;2022-12-07T23:46:48;2.10;99.90
21417;DHT22;10869;52.238;10.716;2022-12-07T23:49:15;2.10;99.90
21417;DHT22;10869;52.238;10.716;2022-12-07T23:51:43;2.10;99.90
21417;DHT22;10869;52.238;10.716;2022-12-07T23:54:10;2.10;99.90
21417;DHT22;10869;52.238;10.716;2022-12-07T23:56:38;2.10;99.90
21417;DHT22;10869;52.238;10.716;2022-12-07T23:59:04;2.10;99.90
